Time;durP1;ratioP1;P1;durP2;ratioP2;P2;SDS_P1;SDS_P2;PMS_P1;PMS_P2;Temp;Humidity;BMP_temperature;BMP_pressure;BME280_temperature;BME280_humidity;BME280_pressure;Samples;Min_cycle;Max_cycle;Signal;HPM_P1;HPM_P2
2021/05/03 00:01:00;;;;;;;12.65;10.88;;;7.60;76.40;;;;;;5039310;28;20042;-64
2021/05/03 00:03:31;;;;;;;13.10;11.38;;;7.60;77.20;;;;;;5039821;28;20039;-64
2021/05/03 00:05:59;;;;;;;13.00;11.60;;;7.50;76.50;;;;;;5042511;28;20037;-65
2021/05/03 00:08:27;;;;;;;13.20;11.48;;;7.50;76.50;;;;;;5040367;28;20040;-64
2021/05/03 00:10:53;;;;;;;13.70;11.07;;;7.50;76.70;;;;;;5034856;28;20394;-64
2021/05/03 00:13:19;;;;;;;12.82;11.18;;;7.40;77.50;;;;;;5047179;28;20022;-64
2021/05/03 00:15:47;;;;;;;14.00;11.52;;;7.30;76.70;;;;;;5040048;28;20112;-65
2021/05/03 00:18:18;;;;;;;11.88;9.85;;;7.40;76.80;;;;;;5040044;28;20037;-65
2021/05/03 00:20:48;;;;;;;14.05;11.38;;;7.30;76.80;;;;;;5040714;28;20040;-64
2021/05/03 00:23:19;;;;;;;14.10;11.15;;;7.30;76.80;;;;;;5039161;28;20041;-64
2021/05/03 00:25:49;;;;;;;12.75;10.55;;;7.30;76.70;;;;;;5040421;28;20543;-64
2021/05/03 00:28:17;;;;;;;13.40;9.85;;;7.30;76.60;;;;;;5040484;28;20045;-65
2021/05/03 00:30:45;;;;;;;11.80;10.15;;;7.40;76.70;;;;;;5038084;28;20098;-64
2021/05/03 00:33:11;;;;;;;11.73;9.98;;;7.30;76.60;;;;;;5036146;28;20036;-64
2021/05/03 00:35:39;;;;;;;10.93;9.45;;;7.30;76.60;;;;;;5040836;28;20104;-64
2021/05/03 00:38:07;;;;;;;11.27;9.98;;;7.30;76.60;;;;;;5038720;28;20037;-64
2021/05/03 00:40:33;;;;;;;11.57;9.85;;;7.30;76.50;;;;;;5040082;28;20554;-65
2021/05/03 00:43:01;;;;;;;11.45;9.68;;;7.30;76.30;;;;;;5038673;28;20041;-63
2021/05/03 00:45:34;;;;;;;10.35;9.07;;;7.30;76.30;;;;;;5039973;28;20033;-65
2021/05/03 00:48:05;;;;;;;10.82;9.38;;;7.30;76.30;;;;;;5038647;28;20120;-65
2021/05/03 00:50:37;;;;;;;11.85;9.63;;;7.30;76.20;;;;;;5040851;28;20496;-64
2021/05/03 00:53:06;;;;;;;11.18;9.65;;;7.30;76.20;;;;;;5037360;28;20041;-64
2021/05/03 00:55:37;;;;;;;12.48;9.68;;;7.20;76.30;;;;;;5038256;28;20030;-65
2021/05/03 00:58:07;;;;;;;11.60;9.73;;;7.20;76.30;;;;;;5037027;28;20049;-64
2021/05/03 01:00:38;;;;;;;12.88;10.50;;;7.20;76.40;;;;;;5039727;28;20036;-65
2021/05/03 01:03:06;;;;;;;13.30;10.88;;;7.10;76.50;;;;;;5032416;28;20041;-65
2021/05/03 01:05:37;;;;;;;14.00;11.13;;;7.10;76.40;;;;;;5039693;28;20053;-65
2021/05/03 01:08:05;;;;;;;13.85;10.70;;;7.10;76.50;;;;;;5039045;28;20531;-65
2021/05/03 01:10:33;;;;;;;13.43;11.00;;;7.10;76.80;;;;;;5035603;28;20038;-65
2021/05/03 01:13:02;;;;;;;14.90;11.32;;;7.00;76.70;;;;;;5039557;28;20063;-65
2021/05/03 01:15:30;;;;;;;13.95;10.98;;;7.00;76.70;;;;;;5041119;28;20040;-65
2021/05/03 01:18:07;;;;;;;14.10;10.77;;;7.00;76.90;;;;;;5040712;28;20029;-66
2021/05/03 01:20:38;;;;;;;14.63;10.68;;;6.90;77.00;;;;;;5042090;28;20029;-65
2021/05/03 01:23:12;;;;;;;14.07;10.90;;;6.90;77.00;;;;;;5035543;28;20862;-64
2021/05/03 01:25:41;;;;;;;14.93;11.77;;;6.90;77.20;;;;;;5036079;28;20025;-64
2021/05/03 01:28:09;;;;;;;13.27;11.25;;;6.90;77.20;;;;;;5039708;28;20034;-64
2021/05/03 01:30:40;;;;;;;14.52;11.10;;;6.90;77.20;;;;;;5039746;28;20057;-64
2021/05/03 01:33:12;;;;;;;15.70;11.75;;;6.80;77.20;;;;;;5034968;28;20029;-64
2021/05/03 01:35:40;;;;;;;14.57;10.57;;;6.80;77.30;;;;;;5038556;28;20025;-65
2021/05/03 01:38:09;;;;;;;13.48;11.38;;;6.80;77.30;;;;;;5037945;28;20033;-65
2021/05/03 01:40:39;;;;;;;13.70;11.23;;;6.80;77.30;;;;;;5038686;28;20484;-65
2021/05/03 01:43:17;;;;;;;14.43;11.65;;;6.80;77.40;;;;;;5037931;28;20079;-64
2021/05/03 01:45:47;;;;;;;13.07;10.82;;;6.70;77.30;;;;;;5038047;28;20079;-64
2021/05/03 01:48:17;;;;;;;14.73;12.02;;;6.70;77.20;;;;;;5037979;28;20041;-66
2021/05/03 01:50:48;;;;;;;13.90;11.38;;;6.70;77.30;;;;;;5037404;28;20025;-64
2021/05/03 01:53:18;;;;;;;13.75;11.38;;;6.70;77.30;;;;;;5036277;28;20456;-64
2021/05/03 01:55:52;;;;;;;14.43;11.57;;;6.70;77.30;;;;;;5036710;28;20547;-64
2021/05/03 01:58:21;;;;;;;14.23;11.57;;;6.60;77.30;;;;;;5036937;28;20451;-64
2021/05/03 02:00:49;;;;;;;14.85;11.25;;;6.60;77.30;;;;;;5038353;28;20053;-64
2021/05/03 02:03:21;;;;;;;12.10;10.35;;;6.60;77.20;;;;;;5035538;28;20285;-65
2021/05/03 02:05:54;;;;;;;13.05;10.63;;;6.60;77.30;;;;;;5038466;28;20029;-64
2021/05/03 02:08:23;;;;;;;15.95;11.52;;;6.60;77.10;;;;;;5040312;28;20037;-65
2021/05/03 02:10:54;;;;;;;12.85;11.07;;;6.60;76.90;;;;;;5036337;28;20443;-64
2021/05/03 02:13:27;;;;;;;11.98;10.13;;;6.60;77.10;;;;;;5036826;28;20403;-65
2021/05/03 02:15:55;;;;;;;13.27;10.70;;;6.60;77.20;;;;;;5039760;28;20065;-65
2021/05/03 02:18:25;;;;;;;14.45;11.23;;;6.50;77.10;;;;;;5039391;28;20063;-68
2021/05/03 02:20:53;;;;;;;13.93;11.57;;;6.60;77.20;;;;;;5042259;28;20029;-66
2021/05/03 02:23:19;;;;;;;13.95;11.45;;;6.60;77.30;;;;;;5041827;28;20496;-64
2021/05/03 02:25:47;;;;;;;13.07;10.43;;;6.60;77.30;;;;;;5041542;28;20033;-64
2021/05/03 02:28:18;;;;;;;13.50;11.13;;;6.60;77.40;;;;;;5043923;28;20037;-65
2021/05/03 02:30:43;;;;;;;12.10;10.45;;;6.50;77.30;;;;;;5039543;28;20104;-64
2021/05/03 02:33:09;;;;;;;14.15;11.52;;;6.60;77.30;;;;;;5039234;28;20129;-64
2021/05/03 02:35:35;;;;;;;13.38;10.88;;;6.50;77.10;;;;;;5041441;28;20032;-64
2021/05/03 02:38:08;;;;;;;13.40;11.13;;;6.50;76.80;;;;;;5043509;28;20455;-65
2021/05/03 02:40:39;;;;;;;12.70;10.70;;;6.50;76.80;;;;;;5041701;28;20033;-65
2021/05/03 02:43:12;;;;;;;14.00;11.23;;;6.50;76.80;;;;;;5037846;28;20034;-64
2021/05/03 02:45:42;;;;;;;14.15;10.77;;;6.50;76.90;;;;;;5042922;28;20025;-65
2021/05/03 02:48:10;;;;;;;14.82;11.77;;;6.60;77.10;;;;;;5041543;28;20508;-65
2021/05/03 02:50:38;;;;;;;13.50;11.38;;;6.50;76.90;;;;;;5042588;28;20036;-64
2021/05/03 02:53:04;;;;;;;12.88;11.25;;;6.50;76.70;;;;;;5036632;28;20041;-65
2021/05/03 02:55:32;;;;;;;13.43;10.68;;;6.50;76.70;;;;;;5040956;28;20030;-65
2021/05/03 02:58:00;;;;;;;13.00;10.90;;;6.50;76.40;;;;;;5041434;28;20049;-65
2021/05/03 03:00:33;;;;;;;14.35;11.82;;;6.50;76.20;;;;;;5041221;28;20056;-65
2021/05/03 03:03:00;;;;;;;15.95;11.45;;;6.50;76.40;;;;;;5037451;28;20033;-64
2021/05/03 03:05:30;;;;;;;15.52;12.50;;;6.50;76.40;;;;;;5037377;28;20079;-66
2021/05/03 03:08:04;;;;;;;15.88;11.63;;;6.40;76.50;;;;;;5041552;28;20037;-64
2021/05/03 03:10:35;;;;;;;13.95;11.32;;;6.40;76.60;;;;;;5036821;28;20025;-64
2021/05/03 03:13:03;;;;;;;14.15;11.25;;;6.40;76.70;;;;;;5040298;28;20045;-64
2021/05/03 03:15:35;;;;;;;13.25;11.10;;;6.40;76.50;;;;;;5042133;28;20029;-65
2021/05/03 03:18:06;;;;;;;13.70;10.75;;;6.30;76.00;;;;;;5040036;28;20049;-65
2021/05/03 03:20:39;;;;;;;13.73;11.13;;;6.30;75.80;;;;;;5038838;28;20128;-65
2021/05/03 03:23:09;;;;;;;14.63;11.50;;;6.30;75.70;;;;;;5037639;28;20497;-64
2021/05/03 03:25:37;;;;;;;14.70;11.93;;;6.20;75.50;;;;;;5048236;28;20400;-65
2021/05/03 03:28:08;;;;;;;15.38;12.07;;;6.10;75.50;;;;;;5039207;28;20038;-65
2021/05/03 03:30:38;;;;;;;15.25;12.07;;;6.10;75.70;;;;;;5048354;28;20027;-64
2021/05/03 03:33:08;;;;;;;15.23;12.13;;;6.00;76.00;;;;;;5036761;28;20057;-64
2021/05/03 03:35:34;;;;;;;17.05;12.40;;;5.90;76.40;;;;;;5040823;28;20117;-66
2021/05/03 03:37:59;;;;;;;16.13;12.43;;;5.80;76.70;;;;;;5035990;28;20172;-65
2021/05/03 03:40:25;;;;;;;15.25;11.80;;;5.80;77.10;;;;;;5036121;28;20037;-65
2021/05/03 03:42:53;;;;;;;17.38;11.98;;;5.80;77.30;;;;;;5037978;28;20571;-64
2021/05/03 03:45:23;;;;;;;15.65;12.30;;;5.80;77.50;;;;;;5033960;28;20033;-64
2021/05/03 03:47:54;;;;;;;18.88;12.60;;;5.70;77.80;;;;;;5028994;28;20068;-65
2021/05/03 03:50:24;;;;;;;17.90;13.32;;;5.80;77.90;;;;;;5026991;28;20656;-64
2021/05/03 03:52:51;;;;;;;30.02;19.00;;;5.80;78.00;;;;;;5033963;28;20021;-64
2021/05/03 03:55:19;;;;;;;24.50;17.60;;;5.80;78.10;;;;;;5035406;28;20034;-65
2021/05/03 03:57:49;;;;;;;54.90;36.90;;;5.90;78.10;;;;;;5035391;28;20040;-65
2021/05/03 04:00:18;;;;;;;38.67;27.67;;;5.90;78.30;;;;;;5034084;28;20041;-64
2021/05/03 04:02:47;;;;;;;22.48;16.17;;;5.90;78.30;;;;;;5035542;28;20037;-64
2021/05/03 04:08:00;;;;;;;19.42;14.40;;;6.00;78.30;;;;;;5038222;28;20192;-65
2021/05/03 04:24:08;;;;;;;21.02;15.25;;;6.00;78.80;;;;;;5040503;28;20527;-65
2021/05/03 04:26:39;;;;;;;21.35;15.48;;;6.00;79.00;;;;;;5036918;28;20030;-66
2021/05/03 04:29:09;;;;;;;20.98;15.20;;;6.00;79.30;;;;;;5037742;28;20033;-65
2021/05/03 04:31:37;;;;;;;22.52;16.27;;;6.10;79.40;;;;;;5045351;28;20029;-65
2021/05/03 04:34:03;;;;;;;22.58;16.33;;;6.10;79.50;;;;;;5040209;28;20033;-65
2021/05/03 04:36:28;;;;;;;21.63;15.50;;;6.10;79.50;;;;;;5038747;28;20037;-65
2021/05/03 04:38:56;;;;;;;20.35;15.07;;;6.10;79.60;;;;;;5037353;28;20101;-65
2021/05/03 04:41:22;;;;;;;23.63;16.88;;;6.10;79.80;;;;;;5038832;28;20108;-65
2021/05/03 04:43:50;;;;;;;20.83;15.48;;;6.20;79.80;;;;;;5039425;28;20520;-65
2021/05/03 04:46:20;;;;;;;20.23;15.40;;;6.20;79.80;;;;;;5038221;28;20063;-65
2021/05/03 04:48:50;;;;;;;21.70;15.73;;;6.20;79.90;;;;;;5035760;28;20041;-65
2021/05/03 04:51:18;;;;;;;23.48;15.82;;;6.30;79.90;;;;;;5039159;28;20075;-65
2021/05/03 04:53:48;;;;;;;22.50;15.60;;;6.30;79.90;;;;;;5040342;28;20031;-65
2021/05/03 04:56:14;;;;;;;19.15;14.55;;;6.30;80.00;;;;;;5037972;28;20037;-66
2021/05/03 04:58:45;;;;;;;22.73;15.88;;;6.40;79.90;;;;;;5035914;28;20034;-64
2021/05/03 05:01:15;;;;;;;22.50;15.45;;;6.40;79.90;;;;;;5038165;28;20030;-65
2021/05/03 05:03:43;;;;;;;18.80;13.80;;;6.40;79.80;;;;;;5039445;28;20108;-65
2021/05/03 05:06:13;;;;;;;19.42;14.20;;;6.40;79.70;;;;;;5035414;28;20473;-65
2021/05/03 05:08:41;;;;;;;19.92;14.30;;;6.50;79.70;;;;;;5037367;28;20040;-66
2021/05/03 05:11:10;;;;;;;22.80;14.30;;;6.50;80.60;;;;;;5035096;28;20038;-66
2021/05/03 05:13:37;;;;;;;20.58;14.68;;;6.50;79.90;;;;;;5039157;28;20026;-65
2021/05/03 05:16:06;;;;;;;19.88;15.63;;;6.50;79.90;;;;;;5039261;28;20045;-66
2021/05/03 05:18:37;;;;;;;19.80;14.80;;;6.50;79.90;;;;;;5037864;28;20040;-65
2021/05/03 05:21:07;;;;;;;20.40;14.63;;;6.60;80.00;;;;;;5037986;28;20037;-65
2021/05/03 05:23:37;;;;;;;21.58;15.13;;;6.60;80.00;;;;;;5045185;28;20033;-65
2021/05/03 05:26:03;;;;;;;20.73;15.20;;;6.70;80.10;;;;;;5038401;28;20543;-63
2021/05/03 05:28:31;;;;;;;25.08;17.65;;;6.70;80.00;;;;;;5038740;28;20065;-64
2021/05/03 05:31:04;;;;;;;19.30;14.40;;;6.80;80.90;;;;;;5038911;28;20034;-65
2021/05/03 05:33:36;;;;;;;21.85;14.88;;;6.80;80.00;;;;;;5038138;28;20504;-65
2021/05/03 05:36:05;;;;;;;21.05;14.30;;;6.80;80.00;;;;;;5034691;28;20041;-65
2021/05/03 05:38:33;;;;;;;18.83;14.93;;;6.80;80.00;;;;;;5037402;28;20141;-63
2021/05/03 05:41:01;;;;;;;20.42;15.18;;;6.90;80.60;;;;;;5045733;28;20512;-65
2021/05/03 05:43:29;;;;;;;20.90;14.73;;;6.90;79.90;;;;;;5038570;28;20041;-65
2021/05/03 05:45:56;;;;;;;21.80;15.25;;;6.90;79.90;;;;;;5031266;28;20443;-65
2021/05/03 05:48:29;;;;;;;19.15;14.35;;;6.90;79.80;;;;;;5036576;28;20041;-64
2021/05/03 05:50:54;;;;;;;17.90;13.88;;;7.00;79.90;;;;;;5038804;28;20032;-65
2021/05/03 05:53:23;;;;;;;18.65;15.10;;;7.00;79.80;;;;;;5038532;28;20021;-66
2021/05/03 05:55:53;;;;;;;19.17;14.60;;;7.00;79.80;;;;;;5043425;28;20038;-65
2021/05/03 05:58:18;;;;;;;19.85;14.82;;;7.10;79.60;;;;;;5033054;28;20045;-65
2021/05/03 06:00:46;;;;;;;20.80;14.80;;;7.10;79.50;;;;;;5037919;28;20036;-65
2021/05/03 06:03:16;;;;;;;19.65;14.75;;;7.10;79.40;;;;;;5035144;28;20120;-65
2021/05/03 06:05:44;;;;;;;19.98;14.88;;;7.20;79.40;;;;;;5038653;28;20386;-64
2021/05/03 06:08:12;;;;;;;18.55;14.27;;;7.20;79.30;;;;;;5038337;28;20045;-66
2021/05/03 06:10:40;;;;;;;19.15;14.52;;;7.30;79.30;;;;;;5033606;28;20025;-65
2021/05/03 06:13:07;;;;;;;17.85;14.43;;;7.30;79.10;;;;;;5038050;28;20026;-65
2021/05/03 06:15:38;;;;;;;19.98;14.77;;;7.40;79.00;;;;;;5037155;28;20021;-65
2021/05/03 06:18:08;;;;;;;17.15;14.10;;;7.40;78.80;;;;;;5037033;28;20037;-63
2021/05/03 06:20:38;;;;;;;17.30;14.00;;;7.40;78.70;;;;;;5040939;28;20037;-65
2021/05/03 06:23:10;;;;;;;20.30;13.50;;;7.40;78.60;;;;;;5037069;28;20041;-66
2021/05/03 06:25:41;;;;;;;19.55;14.13;;;7.40;78.50;;;;;;5035831;28;20061;-65
2021/05/03 06:28:09;;;;;;;18.85;14.13;;;7.40;78.60;;;;;;5037463;28;20467;-65
2021/05/03 06:30:40;;;;;;;19.08;14.00;;;7.40;78.60;;;;;;5034739;28;20049;-66
2021/05/03 06:33:05;;;;;;;16.80;13.35;;;7.40;78.60;;;;;;5038239;28;20463;-65
2021/05/03 06:35:32;;;;;;;17.48;13.45;;;7.50;78.60;;;;;;5037822;28;20113;-65
2021/05/03 06:37:58;;;;;;;19.58;13.77;;;7.40;78.40;;;;;;5037817;28;20029;-65
2021/05/03 06:40:24;;;;;;;17.65;13.68;;;7.50;78.50;;;;;;5036538;28;20439;-65
2021/05/03 06:42:51;;;;;;;20.00;14.25;;;7.50;78.50;;;;;;5038195;28;20033;-65
2021/05/03 06:45:23;;;;;;;23.08;14.55;;;7.50;78.60;;;;;;5034227;28;20421;-65
2021/05/03 06:47:52;;;;;;;20.63;15.00;;;7.60;78.70;;;;;;5035969;28;20053;-65
2021/05/03 06:50:23;;;;;;;17.73;13.43;;;7.60;78.70;;;;;;5037972;28;20053;-65
2021/05/03 06:52:55;;;;;;;18.08;13.75;;;7.70;79.00;;;;;;5033568;28;20029;-66
2021/05/03 06:55:23;;;;;;;17.70;14.00;;;7.80;79.10;;;;;;5036325;28;20439;-65
2021/05/03 06:57:54;;;;;;;16.98;13.75;;;7.80;79.10;;;;;;5042349;28;20033;-65
2021/05/03 07:00:25;;;;;;;17.63;13.73;;;7.90;78.90;;;;;;5037137;28;20476;-67
2021/05/03 07:02:53;;;;;;;17.88;13.68;;;8.00;78.80;;;;;;5028792;28;20071;-66
2021/05/03 07:05:19;;;;;;;18.42;14.10;;;8.00;78.50;;;;;;5039450;28;20033;-66
2021/05/03 07:07:47;;;;;;;16.75;13.48;;;8.00;78.30;;;;;;5039693;28;20034;-66
2021/05/03 07:10:15;;;;;;;18.30;14.43;;;8.10;78.40;;;;;;5040605;28;20064;-67
2021/05/03 07:12:48;;;;;;;16.92;13.50;;;8.30;78.20;;;;;;5038626;28;20389;-65
2021/05/03 07:15:16;;;;;;;17.33;13.50;;;8.30;78.20;;;;;;5041886;28;20033;-66
2021/05/03 07:17:43;;;;;;;17.10;13.38;;;8.30;77.80;;;;;;5043829;28;20030;-66
2021/05/03 07:20:10;;;;;;;16.98;13.07;;;8.40;77.60;;;;;;5036487;28;20044;-66
2021/05/03 07:22:38;;;;;;;15.73;13.38;;;8.40;77.20;;;;;;5039722;28;20467;-66
2021/05/03 07:25:07;;;;;;;16.08;12.95;;;8.50;77.00;;;;;;5039956;28;20033;-66
2021/05/03 07:27:37;;;;;;;14.68;12.27;;;8.50;76.70;;;;;;5039767;28;20037;-65
2021/05/03 07:30:09;;;;;;;16.90;12.90;;;8.50;76.80;;;;;;5040679;28;20037;-66
2021/05/03 07:32:38;;;;;;;15.20;12.40;;;8.60;76.50;;;;;;5041216;28;20030;-65
2021/05/03 07:35:08;;;;;;;15.23;11.75;;;8.60;76.60;;;;;;5040717;28;20484;-65
2021/05/03 07:37:41;;;;;;;14.98;12.57;;;8.70;76.60;;;;;;5039649;28;20041;-66
2021/05/03 07:40:12;;;;;;;20.20;12.30;;;8.70;76.50;;;;;;5038489;28;20037;-66
2021/05/03 07:42:42;;;;;;;16.88;12.27;;;8.80;76.60;;;;;;5040136;28;20612;-65
2021/05/03 07:45:12;;;;;;;16.55;11.93;;;8.90;76.30;;;;;;5039779;28;20029;-66
2021/05/03 07:47:38;;;;;;;14.35;11.38;;;8.90;76.20;;;;;;5039580;28;20547;-66
2021/05/03 07:50:10;;;;;;;15.20;11.65;;;9.00;76.10;;;;;;5038264;28;20108;-65
2021/05/03 07:52:41;;;;;;;15.15;11.95;;;9.00;75.60;;;;;;5038631;28;20025;-66
2021/05/03 07:55:12;;;;;;;13.65;10.88;;;9.00;75.30;;;;;;5039291;28;20037;-67
2021/05/03 07:57:38;;;;;;;13.30;11.30;;;9.10;75.20;;;;;;5032671;28;20048;-66
2021/05/03 08:00:07;;;;;;;13.57;10.82;;;9.20;75.10;;;;;;5038731;28;20041;-66
2021/05/03 08:02:33;;;;;;;15.05;11.32;;;9.20;75.00;;;;;;5034357;28;20576;-65
2021/05/03 08:05:03;;;;;;;13.27;10.77;;;9.30;74.90;;;;;;5037949;28;20041;-66
2021/05/03 08:07:31;;;;;;;12.65;10.43;;;9.40;74.70;;;;;;5038215;28;20448;-66
2021/05/03 08:10:04;;;;;;;13.35;11.18;;;9.50;74.90;;;;;;5039230;28;20025;-66
2021/05/03 08:12:29;;;;;;;12.88;10.88;;;9.50;74.80;;;;;;5035699;28;20113;-65
2021/05/03 08:15:09;;;;;;;13.55;11.30;;;9.60;74.70;;;;;;5039520;28;20108;-66
2021/05/03 08:17:35;;;;;;;12.10;10.25;;;9.70;74.60;;;;;;5036049;28;20030;-66
2021/05/03 08:20:04;;;;;;;12.82;9.98;;;9.90;72.90;;;;;;5040075;28;20093;-66
2021/05/03 08:22:33;;;;;;;12.45;10.10;;;9.90;72.40;;;;;;5038510;28;20029;-65
2021/05/03 08:25:05;;;;;;;11.75;10.30;;;10.00;72.80;;;;;;5039532;28;20170;-66
2021/05/03 08:27:33;;;;;;;13.15;9.85;;;10.10;72.50;;;;;;5035467;28;20041;-65
2021/05/03 08:30:05;;;;;;;15.75;10.10;;;10.20;72.60;;;;;;5038369;28;20034;-66
2021/05/03 08:32:33;;;;;;;13.00;10.43;;;10.30;72.00;;;;;;5038527;28;20029;-65
2021/05/03 08:34:59;;;;;;;12.90;10.15;;;10.40;71.90;;;;;;5037037;28;20071;-66
2021/05/03 08:37:27;;;;;;;11.57;9.68;;;10.40;71.90;;;;;;5039050;28;20064;-66
2021/05/03 08:39:54;;;;;;;14.02;10.23;;;10.50;71.90;;;;;;5038227;28;20036;-65
2021/05/03 08:42:27;;;;;;;12.00;9.80;;;10.50;71.70;;;;;;5037268;28;20452;-66
2021/05/03 08:44:57;;;;;;;11.25;9.35;;;10.60;70.90;;;;;;5037666;28;20120;-65
2021/05/03 08:47:31;;;;;;;11.38;9.40;;;10.60;70.20;;;;;;5043788;28;20038;-66
2021/05/03 08:50:08;;;;;;;12.20;9.27;;;10.70;69.70;;;;;;5039681;28;20036;-66
2021/05/03 08:52:46;;;;;;;10.23;8.57;;;10.80;69.20;;;;;;5034446;28;20021;-65
2021/05/03 08:55:14;;;;;;;8.95;7.88;;;10.90;69.00;;;;;;5037994;28;20033;-66
2021/05/03 08:57:45;;;;;;;12.55;8.20;;;10.90;69.10;;;;;;5033132;28;20091;-66
2021/05/03 09:00:16;;;;;;;10.27;8.45;;;11.00;68.50;;;;;;5037149;28;20034;-66
2021/05/03 09:02:47;;;;;;;9.25;7.47;;;11.10;68.30;;;;;;5038106;28;20090;-65
2021/05/03 09:05:17;;;;;;;9.57;7.75;;;11.20;67.40;;;;;;5033504;28;20171;-64
2021/05/03 09:07:50;;;;;;;9.77;7.63;;;11.30;67.80;;;;;;5037113;28;20052;-65
2021/05/03 09:10:22;;;;;;;9.55;7.95;;;11.40;66.40;;;;;;5037158;28;20038;-66
2021/05/03 09:12:50;;;;;;;8.00;7.18;;;11.50;67.20;;;;;;5034308;28;20022;-66
2021/05/03 09:15:26;;;;;;;11.43;7.50;;;11.60;66.90;;;;;;5037270;28;20038;-65
2021/05/03 09:17:52;;;;;;;7.50;6.22;;;11.70;65.30;;;;;;5038393;28;20056;-66
2021/05/03 09:20:22;;;;;;;7.97;6.10;;;11.70;65.30;;;;;;5037076;28;20033;-66
2021/05/03 09:22:55;;;;;;;7.25;6.28;;;11.80;64.10;;;;;;5031768;28;20116;-67
2021/05/03 09:25:43;;;;;;;6.97;6.28;;;11.80;64.20;;;;;;5037271;28;20034;-66
2021/05/03 09:28:28;;;;;;;6.70;6.05;;;11.80;62.20;;;;;;5034433;28;20121;-66
2021/05/03 09:30:59;;;;;;;6.80;6.13;;;11.80;63.20;;;;;;5037028;28;20517;-66
2021/05/03 09:33:29;;;;;;;7.05;6.35;;;11.90;63.20;;;;;;5036953;28;20083;-67
2021/05/03 09:35:59;;;;;;;8.95;7.80;;;11.90;62.90;;;;;;5035877;28;20037;-66
2021/05/03 09:38:36;;;;;;;8.38;6.68;;;11.90;62.30;;;;;;5036204;28;20407;-65
2021/05/03 09:41:22;;;;;;;6.38;5.47;;;11.90;61.60;;;;;;5036787;28;20408;-66
2021/05/03 09:43:50;;;;;;;8.27;5.40;;;12.00;59.00;;;;;;5035346;28;20043;-66
2021/05/03 09:46:43;;;;;;;10.32;5.78;;;11.90;58.40;;;;;;5036578;28;20072;-66
2021/05/03 09:49:15;;;;;;;6.72;5.35;;;11.90;58.30;;;;;;5034667;28;20148;-66
2021/05/03 09:52:02;;;;;;;6.80;5.47;;;12.00;58.60;;;;;;5036759;28;20026;-67
2021/05/03 09:54:34;;;;;;;4.43;4.03;;;12.00;59.20;;;;;;5035056;28;20041;-65
2021/05/03 09:57:07;;;;;;;4.68;4.28;;;12.00;59.30;;;;;;5034259;28;20613;-66
2021/05/03 09:59:43;;;;;;;5.82;5.03;;;12.00;57.50;;;;;;5037042;28;20077;-66
2021/05/03 10:02:17;;;;;;;5.75;4.35;;;12.00;57.20;;;;;;5036245;28;20112;-65
2021/05/03 10:05:15;;;;;;;5.35;4.85;;;12.00;58.50;;;;;;5034405;28;20403;-66
2021/05/03 10:07:52;;;;;;;5.57;4.78;;;12.00;57.20;;;;;;5037165;28;20029;-66
2021/05/03 10:10:24;;;;;;;5.72;4.80;;;12.00;57.30;;;;;;5035505;28;20028;-66
2021/05/03 10:12:51;;;;;;;5.75;5.25;;;12.00;56.60;;;;;;5036515;28;20025;-67
2021/05/03 10:15:19;;;;;;;5.10;4.60;;;12.10;57.90;;;;;;5035565;28;20025;-67
2021/05/03 10:17:51;;;;;;;5.45;4.88;;;12.10;56.50;;;;;;5037078;28;20067;-66
2021/05/03 10:20:24;;;;;;;5.10;4.60;;;12.10;56.60;;;;;;5036490;28;20041;-66
2021/05/03 10:22:55;;;;;;;4.68;4.25;;;12.10;56.60;;;;;;5035547;28;20033;-66
2021/05/03 10:25:26;;;;;;;4.40;4.00;;;12.20;57.20;;;;;;5043845;28;20538;-66
2021/05/03 10:27:56;;;;;;;5.18;4.68;;;12.20;55.60;;;;;;5036311;28;20052;-66
2021/05/03 10:30:29;;;;;;;5.22;4.72;;;12.30;56.60;;;;;;5034268;28;20030;-65
2021/05/03 10:33:11;;;;;;;5.30;4.80;;;12.30;56.30;;;;;;5035186;28;20068;-66
2021/05/03 10:35:48;;;;;;;5.85;5.25;;;12.30;56.40;;;;;;5033483;28;20030;-66
2021/05/03 10:38:43;;;;;;;6.53;4.70;;;12.40;56.50;;;;;;5041447;28;20067;-66
2021/05/03 10:41:24;;;;;;;4.77;4.23;;;12.40;55.60;;;;;;5019127;28;20116;-65
2021/05/03 10:44:10;;;;;;;4.40;4.00;;;12.40;55.20;;;;;;5039655;28;20037;-66
2021/05/03 10:49:15;;;;;;;4.65;4.25;;;12.40;56.70;;;;;;5040852;28;20120;-66
2021/05/03 10:54:51;;;;;;;4.30;3.90;;;12.50;55.90;;;;;;5022116;28;20045;-66
2021/05/03 10:57:22;;;;;;;5.15;4.28;;;12.50;56.00;;;;;;5036634;28;20044;-65
2021/05/03 10:59:52;;;;;;;5.15;4.03;;;12.50;55.50;;;;;;5038774;28;20041;-66
2021/05/03 11:02:43;;;;;;;4.47;4.05;;;12.50;53.60;;;;;;5034158;28;20057;-67
2021/05/03 11:05:26;;;;;;;4.50;4.10;;;12.60;54.90;;;;;;5038226;28;20033;-66
2021/05/03 11:08:09;;;;;;;4.40;3.83;;;12.60;53.20;;;;;;5041092;28;20149;-67
2021/05/03 11:11:02;;;;;;;4.18;3.78;;;12.70;54.10;;;;;;5038926;28;20021;-66
2021/05/03 11:13:41;;;;;;;3.80;3.50;;;12.80;54.60;;;;;;5038050;28;20393;-66
2021/05/03 11:16:30;;;;;;;3.60;3.30;;;12.90;54.00;;;;;;5037127;28;20581;-66
2021/05/03 11:19:19;;;;;;;4.32;3.92;;;13.10;53.40;;;;;;5036709;28;20037;-66
2021/05/03 11:21:48;;;;;;;3.47;3.08;;;13.10;54.30;;;;;;5039216;28;20514;-66
2021/05/03 11:24:34;;;;;;;4.80;3.40;;;13.20;53.60;;;;;;5040479;28;20036;-65
2021/05/03 11:29:38;;;;;;;4.03;3.70;;;13.30;52.90;;;;;;5040107;28;20094;-66
2021/05/03 11:32:06;;;;;;;;;;;13.40;52.60;;;;;;5036416;28;20496;-67
2021/05/03 11:34:45;;;;;;;4.43;3.50;;;13.40;51.80;;;;;;5039085;28;19961;-66
2021/05/03 11:37:18;;;;;;;5.03;3.80;;;13.40;52.90;;;;;;5055018;28;20033;-66
2021/05/03 11:40:08;;;;;;;5.35;3.88;;;13.50;53.60;;;;;;5040688;28;20342;-66
2021/05/03 11:45:30;;;;;;;3.90;3.50;;;13.60;53.10;;;;;;5038949;28;20033;-66
2021/05/03 11:47:59;;;;;;;2.72;2.53;;;13.70;52.90;;;;;;5037425;28;20043;-66
2021/05/03 11:50:28;;;;;;;3.10;2.80;;;13.70;53.30;;;;;;5036177;28;20755;-65
2021/05/03 11:53:01;;;;;;;6.68;3.42;;;13.80;53.10;;;;;;5034855;28;20040;-66
2021/05/03 11:55:29;;;;;;;5.88;3.28;;;13.90;52.50;;;;;;5040016;28;20112;-66
2021/05/03 11:58:02;;;;;;;4.00;3.20;;;14.00;51.30;;;;;;5043451;28;20068;-66
2021/05/03 12:00:31;;;;;;;4.53;3.40;;;14.10;50.60;;;;;;5038809;28;20033;-66
2021/05/03 12:03:19;;;;;;;4.60;3.83;;;14.20;51.40;;;;;;5033371;28;20033;-66
2021/05/03 12:05:48;;;;;;;3.15;2.78;;;14.20;47.60;;;;;;5038799;28;20025;-65
2021/05/03 12:08:21;;;;;;;3.00;2.80;;;14.30;50.90;;;;;;5037280;28;20034;-66
2021/05/03 12:10:49;;;;;;;3.40;3.10;;;14.30;49.50;;;;;;5037906;28;20041;-66
2021/05/03 12:13:19;;;;;;;3.15;2.88;;;14.30;49.80;;;;;;5038912;28;20025;-67
2021/05/03 12:15:44;;;;;;;3.42;3.13;;;14.40;50.00;;;;;;5039691;28;20037;-67
2021/05/03 12:18:18;;;;;;;86.18;16.77;;;14.40;50.90;;;;;;5054321;28;20037;-65
2021/05/03 12:20:46;;;;;;;8.35;3.95;;;14.50;50.60;;;;;;5035258;28;20087;-66
2021/05/03 12:23:15;;;;;;;5.50;3.00;;;14.50;47.70;;;;;;5039632;28;20048;-65
2021/05/03 12:25:44;;;;;;;3.97;2.80;;;14.50;48.40;;;;;;5037378;28;20421;-66
2021/05/03 12:28:19;;;;;;;2.97;2.55;;;14.50;49.10;;;;;;5037530;28;20459;-66
2021/05/03 12:30:48;;;;;;;3.63;2.80;;;14.60;48.70;;;;;;5034542;28;20040;-65
2021/05/03 12:33:19;;;;;;;7.95;2.88;;;14.60;47.80;;;;;;5037586;28;20025;-65
2021/05/03 12:35:54;;;;;;;4.60;2.55;;;14.70;48.40;;;;;;5038169;28;20029;-66
2021/05/03 12:38:27;;;;;;;2.80;2.60;;;14.70;48.00;;;;;;5036344;28;20041;-65
2021/05/03 12:40:54;;;;;;;3.10;2.80;;;14.70;48.60;;;;;;5037931;28;20418;-66
2021/05/03 12:43:28;;;;;;;4.05;2.88;;;14.70;49.00;;;;;;5038047;28;20116;-66
2021/05/03 12:48:47;;;;;;;4.35;3.47;;;14.70;48.70;;;;;;5038385;28;20040;-65
2021/05/03 12:54:18;;;;;;;3.80;3.30;;;14.70;49.30;;;;;;5037192;28;20454;-64
2021/05/03 12:57:23;;;;;;;3.88;3.55;;;14.70;48.30;;;;;;5038703;28;20059;-67
2021/05/03 13:00:06;;;;;;;3.80;3.45;;;14.70;47.20;;;;;;5036578;28;20030;-66
2021/05/03 13:02:40;;;;;;;3.70;3.40;;;14.70;48.60;;;;;;5037910;28;20055;-66
2021/05/03 13:05:26;;;;;;;3.17;2.88;;;14.70;49.00;;;;;;5034019;28;20215;-65
2021/05/03 13:08:17;;;;;;;3.65;3.35;;;14.70;47.60;;;;;;5039632;28;20048;-67
2021/05/03 13:24:57;;;;;;;3.65;3.08;;;14.80;48.50;;;;;;5035896;28;20056;-65
2021/05/03 13:30:22;;;;;;;3.70;3.40;;;14.90;49.60;;;;;;5035331;28;20591;-66
2021/05/03 13:32:55;;;;;;;3.22;2.90;;;15.00;47.20;;;;;;5035744;28;20038;-65
2021/05/03 13:35:25;;;;;;;3.05;2.75;;;15.00;48.80;;;;;;5036822;28;20030;-66
2021/05/03 13:37:51;;;;;;;3.60;3.30;;;15.00;48.40;;;;;;5037896;28;20508;-66
2021/05/03 13:40:21;;;;;;;3.17;2.80;;;15.00;47.70;;;;;;5036787;28;20067;-65
2021/05/03 13:42:54;;;;;;;3.03;2.80;;;15.00;48.20;;;;;;5035100;28;20056;-65
2021/05/03 13:45:23;;;;;;;3.17;2.97;;;15.00;48.20;;;;;;5033911;28;20029;-67
2021/05/03 13:47:52;;;;;;;3.10;2.83;;;15.00;48.20;;;;;;5036460;28;20124;-66
2021/05/03 13:50:21;;;;;;;2.97;2.72;;;15.00;48.50;;;;;;5036980;28;20034;-66